sensor_id;sensor_type;location;lat;lon;timestamp;P1;durP1;ratioP1;P2;durP2;ratioP2
38629;SDS011;24384;51.988;4.644;2023-12-29T00:02:01;19.42;;;3.67;;
38629;SDS011;24384;51.988;4.644;2023-12-29T00:04:26;15.35;;;3.15;;
38629;SDS011;24384;51.988;4.644;2023-12-29T00:06:54;20.40;;;4.05;;
38629;SDS011;24384;51.988;4.644;2023-12-29T00:09:22;17.23;;;3.63;;
38629;SDS011;24384;51.988;4.644;2023-12-29T00:11:49;11.95;;;3.08;;
38629;SDS011;24384;51.988;4.644;2023-12-29T00:14:15;21.08;;;2.70;;
38629;SDS011;24384;51.988;4.644;2023-12-29T00:16:40;15.00;;;2.60;;
38629;SDS011;24384;51.988;4.644;2023-12-29T00:19:06;22.23;;;2.88;;
38629;SDS011;24384;51.988;4.644;2023-12-29T00:21:31;17.88;;;2.63;;
38629;SDS011;24384;51.988;4.644;2023-12-29T00:23:57;20.50;;;3.10;;
38629;SDS011;24384;51.988;4.644;2023-12-29T00:26:22;20.67;;;3.15;;
38629;SDS011;24384;51.988;4.644;2023-12-29T00:28:47;21.95;;;3.55;;
38629;SDS011;24384;51.988;4.644;2023-12-29T00:31:16;10.63;;;2.20;;
38629;SDS011;24384;51.988;4.644;2023-12-29T00:33:42;20.10;;;3.20;;
38629;SDS011;24384;51.988;4.644;2023-12-29T00:36:08;25.33;;;4.88;;
38629;SDS011;24384;51.988;4.644;2023-12-29T00:38:39;11.85;;;2.80;;
38629;SDS011;24384;51.988;4.644;2023-12-29T00:41:05;20.83;;;3.45;;
38629;SDS011;24384;51.988;4.644;2023-12-29T00:43:32;13.80;;;2.50;;
38629;SDS011;24384;51.988;4.644;2023-12-29T00:45:57;12.98;;;2.55;;
38629;SDS011;24384;51.988;4.644;2023-12-29T00:48:23;9.15;;;2.15;;
38629;SDS011;24384;51.988;4.644;2023-12-29T00:50:48;15.30;;;2.78;;
38629;SDS011;24384;51.988;4.644;2023-12-29T00:53:13;17.98;;;3.10;;
38629;SDS011;24384;51.988;4.644;2023-12-29T00:55:39;12.27;;;3.25;;
38629;SDS011;24384;51.988;4.644;2023-12-29T00:58:05;11.48;;;3.05;;
38629;SDS011;24384;51.988;4.644;2023-12-29T01:00:30;16.20;;;3.00;;
38629;SDS011;24384;51.988;4.644;2023-12-29T01:02:55;20.00;;;2.83;;
38629;SDS011;24384;51.988;4.644;2023-12-29T01:05:21;13.85;;;3.50;;
38629;SDS011;24384;51.988;4.644;2023-12-29T01:07:49;15.50;;;3.15;;
38629;SDS011;24384;51.988;4.644;2023-12-29T01:10:14;15.55;;;2.97;;
38629;SDS011;24384;51.988;4.644;2023-12-29T01:12:39;18.40;;;2.78;;
38629;SDS011;24384;51.988;4.644;2023-12-29T01:15:07;16.30;;;2.85;;
38629;SDS011;24384;51.988;4.644;2023-12-29T01:17:33;18.63;;;3.00;;
38629;SDS011;24384;51.988;4.644;2023-12-29T01:19:58;12.70;;;2.47;;
38629;SDS011;24384;51.988;4.644;2023-12-29T01:22:23;15.75;;;3.17;;
38629;SDS011;24384;51.988;4.644;2023-12-29T01:24:49;19.88;;;3.47;;
38629;SDS011;24384;51.988;4.644;2023-12-29T01:27:14;22.55;;;3.05;;
38629;SDS011;24384;51.988;4.644;2023-12-29T01:29:39;18.88;;;2.80;;
38629;SDS011;24384;51.988;4.644;2023-12-29T01:32:05;14.43;;;3.28;;
38629;SDS011;24384;51.988;4.644;2023-12-29T01:34:32;18.83;;;2.83;;
38629;SDS011;24384;51.988;4.644;2023-12-29T01:37:07;17.30;;;3.72;;
38629;SDS011;24384;51.988;4.644;2023-12-29T01:39:33;13.20;;;3.10;;
38629;SDS011;24384;51.988;4.644;2023-12-29T01:41:59;12.48;;;3.15;;
38629;SDS011;24384;51.988;4.644;2023-12-29T01:44:25;11.80;;;2.63;;
38629;SDS011;24384;51.988;4.644;2023-12-29T01:46:51;20.60;;;4.53;;
38629;SDS011;24384;51.988;4.644;2023-12-29T01:49:20;16.23;;;4.68;;
38629;SDS011;24384;51.988;4.644;2023-12-29T01:51:49;15.27;;;3.15;;
38629;SDS011;24384;51.988;4.644;2023-12-29T01:54:16;15.40;;;2.80;;
38629;SDS011;24384;51.988;4.644;2023-12-29T01:56:44;15.65;;;4.25;;
38629;SDS011;24384;51.988;4.644;2023-12-29T01:59:09;11.25;;;3.22;;
38629;SDS011;24384;51.988;4.644;2023-12-29T02:01:38;19.00;;;5.18;;
38629;SDS011;24384;51.988;4.644;2023-12-29T02:04:05;15.57;;;4.78;;
38629;SDS011;24384;51.988;4.644;2023-12-29T02:06:31;15.18;;;3.60;;
38629;SDS011;24384;51.988;4.644;2023-12-29T02:09:00;15.70;;;4.07;;
38629;SDS011;24384;51.988;4.644;2023-12-29T02:11:26;14.32;;;2.47;;
38629;SDS011;24384;51.988;4.644;2023-12-29T02:13:52;15.40;;;3.83;;
38629;SDS011;24384;51.988;4.644;2023-12-29T02:19:24;20.45;;;4.78;;
38629;SDS011;24384;51.988;4.644;2023-12-29T02:22:03;15.40;;;3.78;;
38629;SDS011;24384;51.988;4.644;2023-12-29T02:24:29;16.77;;;4.05;;
38629;SDS011;24384;51.988;4.644;2023-12-29T02:26:57;14.65;;;3.17;;
38629;SDS011;24384;51.988;4.644;2023-12-29T02:31:56;17.13;;;4.03;;
38629;SDS011;24384;51.988;4.644;2023-12-29T02:34:24;13.50;;;4.25;;
38629;SDS011;24384;51.988;4.644;2023-12-29T02:36:52;23.15;;;4.25;;
38629;SDS011;24384;51.988;4.644;2023-12-29T02:39:19;19.00;;;4.18;;
38629;SDS011;24384;51.988;4.644;2023-12-29T02:41:48;24.13;;;6.53;;
38629;SDS011;24384;51.988;4.644;2023-12-29T02:44:13;21.17;;;4.15;;
38629;SDS011;24384;51.988;4.644;2023-12-29T02:46:38;22.17;;;4.50;;
38629;SDS011;24384;51.988;4.644;2023-12-29T02:49:04;25.42;;;4.30;;
38629;SDS011;24384;51.988;4.644;2023-12-29T02:51:29;22.88;;;4.10;;
38629;SDS011;24384;51.988;4.644;2023-12-29T02:53:54;26.42;;;3.65;;
38629;SDS011;24384;51.988;4.644;2023-12-29T02:56:20;38.63;;;4.78;;
38629;SDS011;24384;51.988;4.644;2023-12-29T02:58:45;19.45;;;4.30;;
38629;SDS011;24384;51.988;4.644;2023-12-29T03:01:14;24.38;;;4.93;;
38629;SDS011;24384;51.988;4.644;2023-12-29T03:03:39;20.40;;;4.22;;
38629;SDS011;24384;51.988;4.644;2023-12-29T03:06:05;21.55;;;3.88;;
38629;SDS011;24384;51.988;4.644;2023-12-29T03:08:31;20.92;;;3.45;;
38629;SDS011;24384;51.988;4.644;2023-12-29T03:10:58;21.35;;;4.30;;
38629;SDS011;24384;51.988;4.644;2023-12-29T03:13:24;24.98;;;4.15;;
38629;SDS011;24384;51.988;4.644;2023-12-29T03:15:49;22.42;;;3.83;;
38629;SDS011;24384;51.988;4.644;2023-12-29T03:18:15;27.05;;;5.32;;
38629;SDS011;24384;51.988;4.644;2023-12-29T03:20:40;36.35;;;5.35;;
38629;SDS011;24384;51.988;4.644;2023-12-29T03:23:05;35.15;;;5.57;;
38629;SDS011;24384;51.988;4.644;2023-12-29T03:25:31;22.65;;;5.95;;
38629;SDS011;24384;51.988;4.644;2023-12-29T03:27:56;16.25;;;3.78;;
38629;SDS011;24384;51.988;4.644;2023-12-29T03:30:23;26.08;;;5.40;;
38629;SDS011;24384;51.988;4.644;2023-12-29T03:32:49;28.63;;;4.18;;
38629;SDS011;24384;51.988;4.644;2023-12-29T03:35:14;25.08;;;5.07;;
38629;SDS011;24384;51.988;4.644;2023-12-29T03:37:41;29.08;;;5.55;;
38629;SDS011;24384;51.988;4.644;2023-12-29T03:40:07;31.23;;;5.82;;
38629;SDS011;24384;51.988;4.644;2023-12-29T03:42:33;28.83;;;5.00;;
38629;SDS011;24384;51.988;4.644;2023-12-29T03:44:58;29.08;;;4.18;;
38629;SDS011;24384;51.988;4.644;2023-12-29T03:47:23;28.50;;;5.00;;
38629;SDS011;24384;51.988;4.644;2023-12-29T03:49:49;18.92;;;5.03;;
38629;SDS011;24384;51.988;4.644;2023-12-29T03:52:14;39.25;;;7.97;;
38629;SDS011;24384;51.988;4.644;2023-12-29T03:54:39;33.95;;;4.38;;
38629;SDS011;24384;51.988;4.644;2023-12-29T03:57:05;35.05;;;7.05;;
38629;SDS011;24384;51.988;4.644;2023-12-29T03:59:30;42.05;;;7.30;;
38629;SDS011;24384;51.988;4.644;2023-12-29T04:01:55;42.70;;;7.72;;
38629;SDS011;24384;51.988;4.644;2023-12-29T04:04:21;42.95;;;7.25;;
38629;SDS011;24384;51.988;4.644;2023-12-29T04:06:48;41.70;;;6.60;;
38629;SDS011;24384;51.988;4.644;2023-12-29T04:09:14;37.50;;;6.22;;
38629;SDS011;24384;51.988;4.644;2023-12-29T04:11:39;41.92;;;6.43;;
38629;SDS011;24384;51.988;4.644;2023-12-29T04:14:04;39.42;;;8.40;;
38629;SDS011;24384;51.988;4.644;2023-12-29T04:16:30;38.90;;;6.60;;
38629;SDS011;24384;51.988;4.644;2023-12-29T04:18:57;40.13;;;7.78;;
38629;SDS011;24384;51.988;4.644;2023-12-29T04:21:22;39.80;;;6.55;;
38629;SDS011;24384;51.988;4.644;2023-12-29T04:23:48;52.30;;;9.40;;
38629;SDS011;24384;51.988;4.644;2023-12-29T04:26:13;37.47;;;6.60;;
38629;SDS011;24384;51.988;4.644;2023-12-29T04:28:38;32.20;;;6.85;;
38629;SDS011;24384;51.988;4.644;2023-12-29T04:31:03;48.20;;;8.85;;
38629;SDS011;24384;51.988;4.644;2023-12-29T04:33:30;39.95;;;6.65;;
38629;SDS011;24384;51.988;4.644;2023-12-29T04:35:55;44.38;;;7.93;;
38629;SDS011;24384;51.988;4.644;2023-12-29T04:38:21;41.75;;;7.57;;
38629;SDS011;24384;51.988;4.644;2023-12-29T04:40:46;37.80;;;7.55;;
38629;SDS011;24384;51.988;4.644;2023-12-29T04:43:14;41.55;;;8.77;;
38629;SDS011;24384;51.988;4.644;2023-12-29T04:45:42;52.80;;;7.50;;
38629;SDS011;24384;51.988;4.644;2023-12-29T04:48:07;37.97;;;6.15;;
38629;SDS011;24384;51.988;4.644;2023-12-29T04:50:33;38.38;;;5.88;;
38629;SDS011;24384;51.988;4.644;2023-12-29T04:52:59;40.67;;;7.25;;
38629;SDS011;24384;51.988;4.644;2023-12-29T04:55:26;37.78;;;6.53;;
38629;SDS011;24384;51.988;4.644;2023-12-29T04:57:54;36.30;;;7.32;;
38629;SDS011;24384;51.988;4.644;2023-12-29T05:00:19;34.85;;;7.78;;
38629;SDS011;24384;51.988;4.644;2023-12-29T05:02:45;53.13;;;7.68;;
38629;SDS011;24384;51.988;4.644;2023-12-29T05:05:10;44.88;;;7.03;;
38629;SDS011;24384;51.988;4.644;2023-12-29T05:07:36;43.90;;;7.22;;
38629;SDS011;24384;51.988;4.644;2023-12-29T05:10:01;46.35;;;8.95;;
38629;SDS011;24384;51.988;4.644;2023-12-29T05:12:28;52.60;;;8.07;;
38629;SDS011;24384;51.988;4.644;2023-12-29T05:14:55;41.03;;;8.15;;
38629;SDS011;24384;51.988;4.644;2023-12-29T05:17:20;42.75;;;7.25;;
38629;SDS011;24384;51.988;4.644;2023-12-29T05:19:45;34.28;;;6.25;;
38629;SDS011;24384;51.988;4.644;2023-12-29T05:22:10;29.55;;;5.85;;
38629;SDS011;24384;51.988;4.644;2023-12-29T05:24:40;45.83;;;7.40;;
38629;SDS011;24384;51.988;4.644;2023-12-29T05:27:05;36.20;;;6.72;;
38629;SDS011;24384;51.988;4.644;2023-12-29T05:29:31;26.08;;;4.65;;
38629;SDS011;24384;51.988;4.644;2023-12-29T05:31:56;27.52;;;4.32;;
38629;SDS011;24384;51.988;4.644;2023-12-29T05:34:21;28.65;;;4.57;;
38629;SDS011;24384;51.988;4.644;2023-12-29T05:36:49;31.45;;;5.10;;
38629;SDS011;24384;51.988;4.644;2023-12-29T05:39:14;22.48;;;6.50;;
38629;SDS011;24384;51.988;4.644;2023-12-29T05:41:39;33.33;;;5.13;;
38629;SDS011;24384;51.988;4.644;2023-12-29T05:44:05;27.83;;;4.38;;
38629;SDS011;24384;51.988;4.644;2023-12-29T05:46:33;26.02;;;3.70;;
38629;SDS011;24384;51.988;4.644;2023-12-29T05:49:01;28.60;;;5.00;;
38629;SDS011;24384;51.988;4.644;2023-12-29T05:51:27;24.92;;;4.25;;
38629;SDS011;24384;51.988;4.644;2023-12-29T05:53:54;24.67;;;3.72;;
38629;SDS011;24384;51.988;4.644;2023-12-29T05:56:22;21.83;;;4.18;;
38629;SDS011;24384;51.988;4.644;2023-12-29T05:59:00;29.52;;;3.50;;
38629;SDS011;24384;51.988;4.644;2023-12-29T06:01:39;24.13;;;4.28;;
38629;SDS011;24384;51.988;4.644;2023-12-29T06:04:08;28.85;;;3.80;;
38629;SDS011;24384;51.988;4.644;2023-12-29T06:06:47;20.65;;;4.13;;
38629;SDS011;24384;51.988;4.644;2023-12-29T06:09:25;19.48;;;3.30;;
38629;SDS011;24384;51.988;4.644;2023-12-29T06:12:04;35.42;;;6.03;;
38629;SDS011;24384;51.988;4.644;2023-12-29T06:14:42;21.35;;;3.80;;
38629;SDS011;24384;51.988;4.644;2023-12-29T06:17:19;19.05;;;2.60;;
38629;SDS011;24384;51.988;4.644;2023-12-29T06:19:57;19.40;;;4.22;;
38629;SDS011;24384;51.988;4.644;2023-12-29T06:22:39;30.77;;;5.95;;
38629;SDS011;24384;51.988;4.644;2023-12-29T06:25:31;27.15;;;3.60;;
38629;SDS011;24384;51.988;4.644;2023-12-29T06:28:01;30.75;;;6.00;;
38629;SDS011;24384;51.988;4.644;2023-12-29T06:30:38;20.80;;;3.53;;
38629;SDS011;24384;51.988;4.644;2023-12-29T06:33:14;12.65;;;2.42;;
38629;SDS011;24384;51.988;4.644;2023-12-29T06:35:50;24.75;;;3.55;;
38629;SDS011;24384;51.988;4.644;2023-12-29T06:38:26;27.20;;;6.18;;
38629;SDS011;24384;51.988;4.644;2023-12-29T06:41:01;16.13;;;2.70;;
38629;SDS011;24384;51.988;4.644;2023-12-29T06:43:32;18.43;;;2.87;;
38629;SDS011;24384;51.988;4.644;2023-12-29T06:46:10;20.00;;;3.17;;
38629;SDS011;24384;51.988;4.644;2023-12-29T06:48:39;17.17;;;3.58;;
38629;SDS011;24384;51.988;4.644;2023-12-29T06:51:17;12.52;;;2.63;;
38629;SDS011;24384;51.988;4.644;2023-12-29T06:54:01;14.85;;;2.50;;
38629;SDS011;24384;51.988;4.644;2023-12-29T06:56:39;11.95;;;2.78;;
38629;SDS011;24384;51.988;4.644;2023-12-29T06:59:15;18.63;;;3.50;;
38629;SDS011;24384;51.988;4.644;2023-12-29T07:01:56;13.70;;;2.42;;
38629;SDS011;24384;51.988;4.644;2023-12-29T07:04:24;17.48;;;2.75;;
38629;SDS011;24384;51.988;4.644;2023-12-29T07:06:51;14.18;;;2.85;;
38629;SDS011;24384;51.988;4.644;2023-12-29T07:09:19;13.57;;;2.50;;
38629;SDS011;24384;51.988;4.644;2023-12-29T07:11:48;11.10;;;2.58;;
38629;SDS011;24384;51.988;4.644;2023-12-29T07:14:14;9.32;;;2.25;;
38629;SDS011;24384;51.988;4.644;2023-12-29T07:16:40;17.33;;;2.50;;
38629;SDS011;24384;51.988;4.644;2023-12-29T07:19:05;14.30;;;3.40;;
38629;SDS011;24384;51.988;4.644;2023-12-29T07:21:31;11.50;;;2.67;;
38629;SDS011;24384;51.988;4.644;2023-12-29T07:23:56;10.05;;;2.25;;
38629;SDS011;24384;51.988;4.644;2023-12-29T07:26:21;21.98;;;3.42;;
38629;SDS011;24384;51.988;4.644;2023-12-29T07:28:46;17.92;;;4.00;;
38629;SDS011;24384;51.988;4.644;2023-12-29T07:31:12;21.08;;;5.07;;
38629;SDS011;24384;51.988;4.644;2023-12-29T07:33:37;14.75;;;3.13;;
38629;SDS011;24384;51.988;4.644;2023-12-29T07:36:03;16.70;;;4.03;;
38629;SDS011;24384;51.988;4.644;2023-12-29T07:38:28;15.07;;;3.53;;
38629;SDS011;24384;51.988;4.644;2023-12-29T07:40:53;20.55;;;3.45;;
38629;SDS011;24384;51.988;4.644;2023-12-29T07:43:19;16.55;;;4.18;;
38629;SDS011;24384;51.988;4.644;2023-12-29T07:45:44;13.52;;;3.63;;
38629;SDS011;24384;51.988;4.644;2023-12-29T07:48:09;15.15;;;3.28;;
38629;SDS011;24384;51.988;4.644;2023-12-29T07:50:36;13.52;;;3.05;;
38629;SDS011;24384;51.988;4.644;2023-12-29T07:53:02;15.98;;;3.80;;
38629;SDS011;24384;51.988;4.644;2023-12-29T07:55:29;8.70;;;2.72;;
38629;SDS011;24384;51.988;4.644;2023-12-29T07:57:55;10.77;;;3.35;;
38629;SDS011;24384;51.988;4.644;2023-12-29T08:00:20;12.30;;;2.67;;
38629;SDS011;24384;51.988;4.644;2023-12-29T08:02:47;12.50;;;3.40;;
38629;SDS011;24384;51.988;4.644;2023-12-29T08:05:12;20.40;;;3.58;;
38629;SDS011;24384;51.988;4.644;2023-12-29T08:07:37;9.90;;;3.50;;
38629;SDS011;24384;51.988;4.644;2023-12-29T08:10:06;14.93;;;3.10;;
38629;SDS011;24384;51.988;4.644;2023-12-29T08:12:31;20.02;;;4.68;;
38629;SDS011;24384;51.988;4.644;2023-12-29T08:14:58;14.77;;;2.63;;
38629;SDS011;24384;51.988;4.644;2023-12-29T08:17:25;9.07;;;2.60;;
38629;SDS011;24384;51.988;4.644;2023-12-29T08:19:50;7.95;;;1.95;;
38629;SDS011;24384;51.988;4.644;2023-12-29T08:22:15;10.63;;;2.83;;
38629;SDS011;24384;51.988;4.644;2023-12-29T08:24:40;11.32;;;4.22;;
38629;SDS011;24384;51.988;4.644;2023-12-29T08:27:11;11.02;;;1.70;;
38629;SDS011;24384;51.988;4.644;2023-12-29T08:29:37;9.35;;;1.90;;
38629;SDS011;24384;51.988;4.644;2023-12-29T08:32:02;11.05;;;2.53;;
38629;SDS011;24384;51.988;4.644;2023-12-29T08:34:28;12.50;;;2.67;;
38629;SDS011;24384;51.988;4.644;2023-12-29T08:36:53;11.38;;;2.50;;
38629;SDS011;24384;51.988;4.644;2023-12-29T08:39:19;6.68;;;2.40;;
38629;SDS011;24384;51.988;4.644;2023-12-29T08:41:44;11.38;;;2.60;;
38629;SDS011;24384;51.988;4.644;2023-12-29T08:44:09;10.73;;;2.30;;
38629;SDS011;24384;51.988;4.644;2023-12-29T08:46:35;8.82;;;1.83;;
38629;SDS011;24384;51.988;4.644;2023-12-29T08:49:02;9.32;;;2.78;;
38629;SDS011;24384;51.988;4.644;2023-12-29T08:51:27;15.82;;;3.15;;
38629;SDS011;24384;51.988;4.644;2023-12-29T08:53:53;6.63;;;2.22;;
38629;SDS011;24384;51.988;4.644;2023-12-29T08:56:19;9.18;;;1.83;;
38629;SDS011;24384;51.988;4.644;2023-12-29T08:58:44;11.43;;;3.10;;
38629;SDS011;24384;51.988;4.644;2023-12-29T09:01:09;7.68;;;1.65;;
38629;SDS011;24384;51.988;4.644;2023-12-29T09:03:35;9.57;;;1.75;;
38629;SDS011;24384;51.988;4.644;2023-12-29T09:06:00;9.15;;;2.58;;
38629;SDS011;24384;51.988;4.644;2023-12-29T09:08:28;10.27;;;1.92;;
38629;SDS011;24384;51.988;4.644;2023-12-29T09:10:53;9.88;;;2.10;;
38629;SDS011;24384;51.988;4.644;2023-12-29T09:13:18;7.38;;;1.75;;
38629;SDS011;24384;51.988;4.644;2023-12-29T09:15:47;7.38;;;2.55;;
38629;SDS011;24384;51.988;4.644;2023-12-29T09:18:13;14.07;;;2.00;;
38629;SDS011;24384;51.988;4.644;2023-12-29T09:20:38;7.25;;;1.20;;
38629;SDS011;24384;51.988;4.644;2023-12-29T09:23:04;5.95;;;1.52;;
38629;SDS011;24384;51.988;4.644;2023-12-29T09:25:30;7.57;;;1.85;;
38629;SDS011;24384;51.988;4.644;2023-12-29T09:27:55;9.82;;;1.80;;
38629;SDS011;24384;51.988;4.644;2023-12-29T09:30:20;7.28;;;2.55;;
38629;SDS011;24384;51.988;4.644;2023-12-29T09:32:46;8.25;;;2.38;;
38629;SDS011;24384;51.988;4.644;2023-12-29T09:35:11;9.93;;;1.60;;
38629;SDS011;24384;51.988;4.644;2023-12-29T09:37:36;11.85;;;1.85;;
38629;SDS011;24384;51.988;4.644;2023-12-29T09:40:02;10.50;;;2.05;;
38629;SDS011;24384;51.988;4.644;2023-12-29T09:42:29;11.27;;;2.85;;
38629;SDS011;24384;51.988;4.644;2023-12-29T09:44:56;10.70;;;2.58;;
38629;SDS011;24384;51.988;4.644;2023-12-29T09:47:23;7.18;;;1.75;;
38629;SDS011;24384;51.988;4.644;2023-12-29T09:49:49;6.93;;;2.05;;
38629;SDS011;24384;51.988;4.644;2023-12-29T09:52:19;10.88;;;2.40;;
38629;SDS011;24384;51.988;4.644;2023-12-29T09:54:47;9.90;;;2.38;;
38629;SDS011;24384;51.988;4.644;2023-12-29T09:57:17;12.30;;;2.80;;
38629;SDS011;24384;51.988;4.644;2023-12-29T09:59:43;8.68;;;2.53;;
38629;SDS011;24384;51.988;4.644;2023-12-29T10:02:14;17.25;;;2.38;;
38629;SDS011;24384;51.988;4.644;2023-12-29T10:04:43;11.82;;;2.85;;
38629;SDS011;24384;51.988;4.644;2023-12-29T10:07:10;12.52;;;2.30;;
38629;SDS011;24384;51.988;4.644;2023-12-29T10:09:38;9.98;;;2.15;;
38629;SDS011;24384;51.988;4.644;2023-12-29T10:12:04;10.57;;;3.08;;
38629;SDS011;24384;51.988;4.644;2023-12-29T10:14:36;19.08;;;2.97;;
38629;SDS011;24384;51.988;4.644;2023-12-29T10:17:19;14.73;;;2.70;;
38629;SDS011;24384;51.988;4.644;2023-12-29T10:19:58;18.65;;;2.15;;
38629;SDS011;24384;51.988;4.644;2023-12-29T10:25:16;18.42;;;3.67;;
38629;SDS011;24384;51.988;4.644;2023-12-29T10:27:42;14.55;;;3.17;;
38629;SDS011;24384;51.988;4.644;2023-12-29T10:30:09;22.08;;;6.57;;
38629;SDS011;24384;51.988;4.644;2023-12-29T10:32:36;18.38;;;4.03;;
38629;SDS011;24384;51.988;4.644;2023-12-29T10:35:08;18.85;;;3.50;;
38629;SDS011;24384;51.988;4.644;2023-12-29T10:37:34;24.45;;;3.08;;
38629;SDS011;24384;51.988;4.644;2023-12-29T10:40:01;21.40;;;4.93;;
38629;SDS011;24384;51.988;4.644;2023-12-29T10:42:26;21.42;;;3.10;;
38629;SDS011;24384;51.988;4.644;2023-12-29T10:45:04;18.77;;;4.90;;
38629;SDS011;24384;51.988;4.644;2023-12-29T10:47:32;17.00;;;2.92;;
38629;SDS011;24384;51.988;4.644;2023-12-29T10:49:59;32.97;;;4.10;;
38629;SDS011;24384;51.988;4.644;2023-12-29T10:52:25;19.40;;;3.88;;
38629;SDS011;24384;51.988;4.644;2023-12-29T10:54:50;13.65;;;3.47;;
38629;SDS011;24384;51.988;4.644;2023-12-29T10:57:29;14.60;;;3.28;;
38629;SDS011;24384;51.988;4.644;2023-12-29T10:59:55;24.45;;;3.13;;
38629;SDS011;24384;51.988;4.644;2023-12-29T11:02:21;22.70;;;3.40;;
38629;SDS011;24384;51.988;4.644;2023-12-29T11:04:46;33.90;;;6.25;;
38629;SDS011;24384;51.988;4.644;2023-12-29T11:07:12;13.43;;;3.53;;
38629;SDS011;24384;51.988;4.644;2023-12-29T11:09:38;23.75;;;3.28;;
38629;SDS011;24384;51.988;4.644;2023-12-29T11:12:04;20.52;;;4.35;;
38629;SDS011;24384;51.988;4.644;2023-12-29T11:14:31;16.20;;;3.72;;
38629;SDS011;24384;51.988;4.644;2023-12-29T11:16:57;23.25;;;3.95;;
38629;SDS011;24384;51.988;4.644;2023-12-29T11:19:25;23.70;;;4.13;;
38629;SDS011;24384;51.988;4.644;2023-12-29T11:21:52;22.75;;;5.78;;
38629;SDS011;24384;51.988;4.644;2023-12-29T11:24:19;19.98;;;3.28;;
38629;SDS011;24384;51.988;4.644;2023-12-29T11:26:44;24.35;;;4.25;;
38629;SDS011;24384;51.988;4.644;2023-12-29T11:29:11;28.63;;;4.20;;
38629;SDS011;24384;51.988;4.644;2023-12-29T11:31:37;18.08;;;3.65;;
38629;SDS011;24384;51.988;4.644;2023-12-29T11:34:10;19.27;;;4.85;;
38629;SDS011;24384;51.988;4.644;2023-12-29T11:36:45;26.60;;;4.93;;
38629;SDS011;24384;51.988;4.644;2023-12-29T11:42:03;26.92;;;4.72;;
38629;SDS011;24384;51.988;4.644;2023-12-29T11:44:35;17.63;;;3.42;;
38629;SDS011;24384;51.988;4.644;2023-12-29T11:47:01;15.48;;;4.90;;
38629;SDS011;24384;51.988;4.644;2023-12-29T11:49:27;20.98;;;2.78;;
38629;SDS011;24384;51.988;4.644;2023-12-29T11:52:38;36.65;;;5.80;;
38629;SDS011;24384;51.988;4.644;2023-12-29T11:55:08;14.93;;;2.55;;
38629;SDS011;24384;51.988;4.644;2023-12-29T11:57:34;19.35;;;3.70;;
38629;SDS011;24384;51.988;4.644;2023-12-29T12:00:02;24.08;;;4.05;;
38629;SDS011;24384;51.988;4.644;2023-12-29T12:02:30;18.90;;;3.40;;
38629;SDS011;24384;51.988;4.644;2023-12-29T12:04:56;15.38;;;4.00;;
38629;SDS011;24384;51.988;4.644;2023-12-29T12:10:27;15.60;;;3.20;;
38629;SDS011;24384;51.988;4.644;2023-12-29T12:12:47;24.05;;;3.95;;
38629;SDS011;24384;51.988;4.644;2023-12-29T12:18:02;19.60;;;3.13;;
38629;SDS011;24384;51.988;4.644;2023-12-29T12:23:00;20.10;;;3.38;;
38629;SDS011;24384;51.988;4.644;2023-12-29T12:25:26;25.95;;;4.35;;
38629;SDS011;24384;51.988;4.644;2023-12-29T12:27:53;24.30;;;3.97;;
38629;SDS011;24384;51.988;4.644;2023-12-29T12:30:19;18.45;;;2.90;;
38629;SDS011;24384;51.988;4.644;2023-12-29T12:32:44;18.05;;;2.85;;
38629;SDS011;24384;51.988;4.644;2023-12-29T12:35:13;25.13;;;4.53;;
38629;SDS011;24384;51.988;4.644;2023-12-29T12:37:40;18.08;;;3.67;;
38629;SDS011;24384;51.988;4.644;2023-12-29T12:40:06;14.20;;;2.97;;
38629;SDS011;24384;51.988;4.644;2023-12-29T12:42:33;18.92;;;3.53;;
38629;SDS011;24384;51.988;4.644;2023-12-29T12:45:16;18.65;;;3.10;;
38629;SDS011;24384;51.988;4.644;2023-12-29T12:47:45;12.30;;;2.70;;
38629;SDS011;24384;51.988;4.644;2023-12-29T12:50:18;15.10;;;3.38;;
38629;SDS011;24384;51.988;4.644;2023-12-29T12:52:46;17.05;;;3.47;;
38629;SDS011;24384;51.988;4.644;2023-12-29T12:55:13;20.02;;;2.92;;
38629;SDS011;24384;51.988;4.644;2023-12-29T12:57:41;12.50;;;3.60;;
38629;SDS011;24384;51.988;4.644;2023-12-29T13:00:06;27.50;;;3.78;;
38629;SDS011;24384;51.988;4.644;2023-12-29T13:02:33;15.68;;;2.83;;
38629;SDS011;24384;51.988;4.644;2023-12-29T13:05:00;12.88;;;3.90;;
38629;SDS011;24384;51.988;4.644;2023-12-29T13:07:30;18.67;;;3.00;;
38629;SDS011;24384;51.988;4.644;2023-12-29T13:09:56;16.90;;;4.45;;
38629;SDS011;24384;51.988;4.644;2023-12-29T13:12:21;19.05;;;3.45;;
38629;SDS011;24384;51.988;4.644;2023-12-29T13:14:46;11.00;;;2.47;;
38629;SDS011;24384;51.988;4.644;2023-12-29T13:17:13;18.52;;;4.18;;
38629;SDS011;24384;51.988;4.644;2023-12-29T13:19:41;13.20;;;2.38;;
38629;SDS011;24384;51.988;4.644;2023-12-29T13:22:08;15.35;;;3.72;;
38629;SDS011;24384;51.988;4.644;2023-12-29T13:24:35;7.82;;;2.50;;
38629;SDS011;24384;51.988;4.644;2023-12-29T13:27:07;18.45;;;1.92;;
38629;SDS011;24384;51.988;4.644;2023-12-29T13:29:33;35.92;;;5.07;;
38629;SDS011;24384;51.988;4.644;2023-12-29T13:32:05;13.82;;;3.33;;
38629;SDS011;24384;51.988;4.644;2023-12-29T13:37:41;19.98;;;2.92;;
38629;SDS011;24384;51.988;4.644;2023-12-29T13:43:23;16.77;;;4.00;;
38629;SDS011;24384;51.988;4.644;2023-12-29T13:45:49;27.35;;;4.63;;
38629;SDS011;24384;51.988;4.644;2023-12-29T13:48:15;23.52;;;3.42;;
38629;SDS011;24384;51.988;4.644;2023-12-29T13:50:45;25.27;;;3.83;;
38629;SDS011;24384;51.988;4.644;2023-12-29T13:53:15;27.02;;;4.88;;
38629;SDS011;24384;51.988;4.644;2023-12-29T13:55:43;19.98;;;4.45;;
38629;SDS011;24384;51.988;4.644;2023-12-29T13:58:09;26.38;;;4.57;;
38629;SDS011;24384;51.988;4.644;2023-12-29T14:00:35;27.02;;;5.32;;
38629;SDS011;24384;51.988;4.644;2023-12-29T14:03:02;27.98;;;3.28;;
38629;SDS011;24384;51.988;4.644;2023-12-29T14:05:47;27.17;;;4.22;;
38629;SDS011;24384;51.988;4.644;2023-12-29T14:08:23;34.92;;;4.45;;
38629;SDS011;24384;51.988;4.644;2023-12-29T14:10:52;25.58;;;3.70;;
38629;SDS011;24384;51.988;4.644;2023-12-29T14:13:18;22.25;;;2.97;;
38629;SDS011;24384;51.988;4.644;2023-12-29T14:15:44;14.63;;;2.45;;
38629;SDS011;24384;51.988;4.644;2023-12-29T14:21:00;12.93;;;2.85;;
38629;SDS011;24384;51.988;4.644;2023-12-29T14:23:25;25.02;;;2.83;;
38629;SDS011;24384;51.988;4.644;2023-12-29T14:25:51;20.60;;;3.65;;
38629;SDS011;24384;51.988;4.644;2023-12-29T14:28:17;28.08;;;5.47;;
38629;SDS011;24384;51.988;4.644;2023-12-29T14:30:43;19.88;;;3.80;;
38629;SDS011;24384;51.988;4.644;2023-12-29T14:33:09;23.98;;;6.07;;
38629;SDS011;24384;51.988;4.644;2023-12-29T14:35:35;20.17;;;3.17;;
38629;SDS011;24384;51.988;4.644;2023-12-29T14:38:00;13.05;;;2.58;;
38629;SDS011;24384;51.988;4.644;2023-12-29T14:40:26;17.15;;;3.22;;
38629;SDS011;24384;51.988;4.644;2023-12-29T14:42:52;16.30;;;3.75;;
38629;SDS011;24384;51.988;4.644;2023-12-29T14:45:17;7.10;;;1.30;;
38629;SDS011;24384;51.988;4.644;2023-12-29T14:47:42;10.98;;;2.20;;
38629;SDS011;24384;51.988;4.644;2023-12-29T14:50:10;9.07;;;2.38;;
38629;SDS011;24384;51.988;4.644;2023-12-29T14:52:35;10.95;;;2.80;;
38629;SDS011;24384;51.988;4.644;2023-12-29T14:55:03;16.98;;;1.88;;
38629;SDS011;24384;51.988;4.644;2023-12-29T14:57:29;13.10;;;4.70;;
38629;SDS011;24384;51.988;4.644;2023-12-29T14:59:54;21.00;;;2.55;;
38629;SDS011;24384;51.988;4.644;2023-12-29T15:02:20;14.73;;;2.95;;
38629;SDS011;24384;51.988;4.644;2023-12-29T15:04:45;13.30;;;3.13;;
38629;SDS011;24384;51.988;4.644;2023-12-29T15:07:10;16.90;;;3.83;;